ベルリン/テーゲル の空港の天気 - METARとTAF

ベルリン・テーゲル国際空港 ( EDDT / TXL ) - ドイツ ベルリン
飛行場実況気象(Metar)
観測時間08/19 01:50 CEST (08/18 23:50 UTC)
風向・風速静穏 0m/s
視程10km以上
天気現象
なし
気温16℃
湿度77%
気圧1021hPa
METAREDDT 182350Z 00000KT CAVOK 16/12 Q1021
過去の天気等 Google飛行場航空写真 Wunderground天気予報

過去48時間のMETAR

飛行場予報(TAF)
発表時間: 8/19 01:00 CEST (8/18 23:00 UTC)
予報対象時間: 19日2時 CEST ~ 20日2時 CEST
風向・風速不定 1m/s
視程10km以上
なし
19日8時 CEST ~ 19日10時 CEST に徐々に
風向・風速西 4m/s
19日18時 CEST ~ 19日20時 CEST に徐々に
風向・風速不定 2m/s
TAF EDDT 182300Z 1900/1924 VRB02KT CAVOK
BECMG 1906/1908 28007KT
BECMG 1916/1918 VRB03KT